Frenchman, Nevada
Current Conditions -  °F | °C
As of 12:56 AM on Sunday 26 Oct 2014 (Local Time) from KNFL Reporting Station
Clear Clear  
Wind Chill: 44°   Ceiling: Unl
Heat Index: 46°   Visibility: 10mi
Dew Point: 20°   Wind: 5mph
Humidity: 35%   Direction: 40°NE
Pressure: 30.05"   Gusts: NA
Location:  39.5809°N, 118.333°W
Report Text: KNFL 260756Z AUTO 04004KT 10SM CLR 08/M07 A3005 RMK AO2 SLP143 T00781067 402560072
Loading
Personal Weather Stations






























Interactive Weather Map
Tropical Storm Tracking
New forecast layout! Learn more

10-Day Weather Forecast

Advertisements
Track Severe Weather on mobile